ICE113 BIKF-BGGH
Flight info
| Callsign | ICE113 |
|---|---|
| Flight time | 2h 1m |
| Altitude | 38000 |
| Route | SORIR2C SORIR DCT SOPEN DCT SABAG DCT NAPIB DCT INBAN DCT GETDA |
| Aircraft | B38M/M-SDE1FGHILORVWXY/HB1 |
Departure
| Time | 2026-04-29 15:22 |
|---|---|
| Airport | Keflavik International Airport (BIKF) |
Arrival
| Time | 2026-04-29 17:23 |
|---|---|
| Airport | Nuuk International Airport (BGGH) |
| Time | Latitude | Longitude | Altitude | Speed | Heading |
|---|---|---|---|---|---|
| 2026-04-29 14:59 | 63.99258 | -22.61603 | 130 ft | 0 kts | 270° |
| 2026-04-29 15:14 | 63.99258 | -22.61560 | 132 ft | 4 kts | 270° |
| 2026-04-29 15:15 | 63.99258 | -22.61499 | 148 ft | 4 kts | 270° |
| 2026-04-29 15:15 | 63.99261 | -22.61447 | 151 ft | 4 kts | 227° |
| 2026-04-29 15:15 | 63.99279 | -22.61429 | 151 ft | 1 kts | 180° |
| 2026-04-29 15:15 | 63.99262 | -22.61429 | 151 ft | 4 kts | 180° |
| 2026-04-29 15:16 | 63.99247 | -22.61429 | 152 ft | 1 kts | 180° |
| 2026-04-29 15:16 | 63.99246 | -22.61429 | 152 ft | 0 kts | 180° |
| 2026-04-29 15:18 | 63.99234 | -22.61429 | 151 ft | 4 kts | 180° |
| 2026-04-29 15:19 | 63.99208 | -22.61427 | 154 ft | 3 kts | 170° |
| 2026-04-29 15:19 | 63.99186 | -22.61399 | 155 ft | 6 kts | 135° |
| 2026-04-29 15:19 | 63.99173 | -22.61230 | 159 ft | 16 kts | 90° |
| 2026-04-29 15:19 | 63.99173 | -22.60965 | 165 ft | 16 kts | 90° |
| 2026-04-29 15:20 | 63.99173 | -22.60792 | 170 ft | 1 kts | 90° |
| 2026-04-29 15:20 | 63.99173 | -22.60788 | 170 ft | 0 kts | 90° |
| 2026-04-29 15:20 | 63.99173 | -22.60784 | 170 ft | 2 kts | 90° |
| 2026-04-29 15:20 | 63.99173 | -22.60697 | 173 ft | 9 kts | 90° |
| 2026-04-29 15:21 | 63.99161 | -22.60550 | 178 ft | 8 kts | 144° |
| 2026-04-29 15:21 | 63.99132 | -22.60541 | 179 ft | 0 kts | 180° |
| 2026-04-29 15:21 | 63.99095 | -22.60541 | 179 ft | 29 kts | 180° |
| 2026-04-29 15:21 | 63.98614 | -22.60546 | 177 ft | 106 kts | 181° |
| 2026-04-29 15:22 | 63.97694 | -22.60532 | 373 ft | 147 kts | 182° |
| 2026-04-29 15:22 | 63.96654 | -22.60504 | 1248 ft | 153 kts | 184° |
| 2026-04-29 15:22 | 63.95570 | -22.60505 | 2009 ft | 163 kts | 186° |
| 2026-04-29 15:22 | 63.94345 | -22.60526 | 2445 ft | 189 kts | 184° |
| 2026-04-29 15:23 | 63.92972 | -22.60532 | 3138 ft | 197 kts | 184° |
| 2026-04-29 15:23 | 63.91598 | -22.60564 | 4075 ft | 200 kts | 189° |
| 2026-04-29 15:23 | 63.90284 | -22.61748 | 4587 ft | 214 kts | 220° |
| 2026-04-29 15:23 | 63.89428 | -22.64625 | 5105 ft | 237 kts | 249° |
| 2026-04-29 15:24 | 63.89307 | -22.68407 | 6004 ft | 244 kts | 266° |
| 2026-04-29 15:24 | 63.89334 | -22.72285 | 6790 ft | 248 kts | 264° |
| 2026-04-29 15:24 | 63.89347 | -22.76207 | 7670 ft | 249 kts | 264° |
| 2026-04-29 15:24 | 63.89705 | -22.80122 | 8569 ft | 263 kts | 287° |
| 2026-04-29 15:25 | 63.90649 | -22.83761 | 9431 ft | 270 kts | 292° |
| 2026-04-29 15:25 | 63.91642 | -22.87426 | 10194 ft | 275 kts | 291° |
| 2026-04-29 15:25 | 63.92686 | -22.91255 | 10554 ft | 294 kts | 292° |
| 2026-04-29 15:25 | 63.93809 | -22.95338 | 10906 ft | 311 kts | 292° |
| 2026-04-29 15:26 | 63.94987 | -22.99588 | 11382 ft | 323 kts | 292° |
| 2026-04-29 15:26 | 63.96182 | -23.03894 | 12094 ft | 327 kts | 292° |
| 2026-04-29 15:26 | 63.97404 | -23.08312 | 12857 ft | 331 kts | 292° |
| 2026-04-29 15:26 | 63.98641 | -23.12785 | 13638 ft | 335 kts | 291° |
| 2026-04-29 15:27 | 63.99889 | -23.17310 | 14344 ft | 339 kts | 291° |
| 2026-04-29 15:27 | 64.01154 | -23.21905 | 15052 ft | 342 kts | 291° |
| 2026-04-29 15:27 | 64.02422 | -23.26524 | 15779 ft | 346 kts | 290° |
| 2026-04-29 15:27 | 64.03708 | -23.31213 | 16521 ft | 350 kts | 290° |
| 2026-04-29 15:28 | 64.04988 | -23.35892 | 17221 ft | 354 kts | 290° |
| 2026-04-29 15:28 | 64.05870 | -23.39121 | 17773 ft | 356 kts | 290° |
| 2026-04-29 15:28 | 64.07619 | -23.45538 | 18634 ft | 362 kts | 290° |
| 2026-04-29 15:28 | 64.08955 | -23.50453 | 19201 ft | 366 kts | 290° |
| 2026-04-29 15:29 | 64.10302 | -23.55424 | 19802 ft | 369 kts | 290° |
| 2026-04-29 15:29 | 64.13026 | -23.65494 | 20976 ft | 375 kts | 289° |
| 2026-04-29 15:30 | 64.15786 | -23.75759 | 22119 ft | 382 kts | 289° |
| 2026-04-29 15:30 | 64.17181 | -23.80963 | 22684 ft | 385 kts | 289° |
| 2026-04-29 15:30 | 64.18590 | -23.86229 | 23229 ft | 388 kts | 288° |
| 2026-04-29 15:30 | 64.20005 | -23.91531 | 23704 ft | 391 kts | 288° |
| 2026-04-29 15:31 | 64.21428 | -23.96877 | 24157 ft | 394 kts | 288° |
| 2026-04-29 15:31 | 64.22862 | -24.02276 | 24602 ft | 397 kts | 288° |
| 2026-04-29 15:31 | 64.24302 | -24.07712 | 25038 ft | 400 kts | 288° |
| 2026-04-29 15:31 | 64.25751 | -24.13195 | 25470 ft | 402 kts | 288° |
| 2026-04-29 15:32 | 64.27190 | -24.18651 | 25948 ft | 405 kts | 289° |
| 2026-04-29 15:32 | 64.28657 | -24.24227 | 26339 ft | 408 kts | 289° |
| 2026-04-29 15:32 | 64.30132 | -24.29855 | 26751 ft | 411 kts | 289° |
| 2026-04-29 15:32 | 64.31615 | -24.35520 | 27152 ft | 414 kts | 289° |
| 2026-04-29 15:33 | 64.33104 | -24.41228 | 27537 ft | 416 kts | 289° |
| 2026-04-29 15:33 | 64.34601 | -24.46978 | 27913 ft | 419 kts | 289° |
| 2026-04-29 15:33 | 64.36105 | -24.52765 | 28293 ft | 422 kts | 289° |
| 2026-04-29 15:33 | 64.37619 | -24.58605 | 28669 ft | 424 kts | 289° |
| 2026-04-29 15:34 | 64.39138 | -24.64477 | 29029 ft | 427 kts | 289° |
| 2026-04-29 15:34 | 64.40504 | -24.70427 | 29396 ft | 416 kts | 279° |
| 2026-04-29 15:34 | 64.41389 | -24.76768 | 29603 ft | 417 kts | 278° |
| 2026-04-29 15:34 | 64.42313 | -24.83185 | 29883 ft | 421 kts | 278° |
| 2026-04-29 15:35 | 64.43229 | -24.89641 | 30149 ft | 423 kts | 278° |
| 2026-04-29 15:35 | 64.44144 | -24.96161 | 30411 ft | 426 kts | 278° |
| 2026-04-29 15:35 | 64.45058 | -25.02715 | 30728 ft | 428 kts | 278° |
| 2026-04-29 15:35 | 64.45976 | -25.09320 | 30934 ft | 432 kts | 278° |
| 2026-04-29 15:36 | 64.46884 | -25.15887 | 31194 ft | 434 kts | 279° |
| 2026-04-29 15:36 | 64.47808 | -25.22597 | 31435 ft | 437 kts | 279° |
| 2026-04-29 15:36 | 64.48732 | -25.29329 | 31765 ft | 437 kts | 279° |
| 2026-04-29 15:36 | 64.49650 | -25.36044 | 32108 ft | 437 kts | 279° |
| 2026-04-29 15:37 | 64.50565 | -25.42772 | 32462 ft | 437 kts | 279° |
| 2026-04-29 15:37 | 64.51479 | -25.49514 | 32807 ft | 437 kts | 279° |
| 2026-04-29 15:37 | 64.52389 | -25.56255 | 33134 ft | 437 kts | 279° |
| 2026-04-29 15:37 | 64.53296 | -25.62998 | 33470 ft | 438 kts | 279° |
| 2026-04-29 15:38 | 64.54200 | -25.69748 | 33781 ft | 438 kts | 279° |
| 2026-04-29 15:38 | 64.55101 | -25.76509 | 34048 ft | 438 kts | 279° |
| 2026-04-29 15:38 | 64.56000 | -25.83273 | 34310 ft | 438 kts | 279° |
| 2026-04-29 15:38 | 64.56896 | -25.90046 | 34574 ft | 438 kts | 279° |
| 2026-04-29 15:39 | 64.57790 | -25.96833 | 34827 ft | 439 kts | 279° |
| 2026-04-29 15:39 | 64.58669 | -26.03533 | 35078 ft | 439 kts | 279° |
| 2026-04-29 15:39 | 64.59557 | -26.10328 | 35381 ft | 439 kts | 280° |
| 2026-04-29 15:39 | 64.60445 | -26.17157 | 35602 ft | 440 kts | 280° |
| 2026-04-29 15:40 | 64.61329 | -26.23985 | 35843 ft | 441 kts | 280° |
| 2026-04-29 15:40 | 64.62213 | -26.30832 | 36094 ft | 441 kts | 280° |
| 2026-04-29 15:40 | 64.63091 | -26.37668 | 36344 ft | 441 kts | 280° |
| 2026-04-29 15:40 | 64.63968 | -26.44523 | 36589 ft | 441 kts | 280° |
| 2026-04-29 15:41 | 64.64842 | -26.51384 | 36833 ft | 441 kts | 280° |
| 2026-04-29 15:41 | 64.65713 | -26.58252 | 37062 ft | 441 kts | 280° |
| 2026-04-29 15:41 | 64.66582 | -26.65139 | 37290 ft | 441 kts | 280° |
| 2026-04-29 15:41 | 64.67447 | -26.72011 | 37508 ft | 442 kts | 280° |
| 2026-04-29 15:42 | 64.68312 | -26.78903 | 37708 ft | 442 kts | 280° |
| 2026-04-29 15:42 | 64.69989 | -26.92723 | 37759 ft | 439 kts | 276° |
| 2026-04-29 15:43 | 64.71288 | -27.06636 | 37759 ft | 439 kts | 277° |
| 2026-04-29 15:43 | 64.72620 | -27.20568 | 37813 ft | 439 kts | 277° |
| 2026-04-29 15:44 | 64.73950 | -27.34535 | 37756 ft | 439 kts | 277° |
| 2026-04-29 15:44 | 64.75258 | -27.48422 | 37751 ft | 440 kts | 277° |
| 2026-04-29 15:45 | 64.76563 | -27.62424 | 37748 ft | 440 kts | 277° |
| 2026-04-29 15:45 | 64.77855 | -27.76437 | 37746 ft | 440 kts | 277° |
| 2026-04-29 15:46 | 64.79133 | -27.90461 | 37756 ft | 440 kts | 277° |
| 2026-04-29 15:46 | 64.80399 | -28.04513 | 37742 ft | 440 kts | 277° |
| 2026-04-29 15:47 | 64.81652 | -28.18589 | 37735 ft | 440 kts | 277° |
| 2026-04-29 15:47 | 64.82891 | -28.32663 | 37735 ft | 440 kts | 277° |
| 2026-04-29 15:48 | 64.84110 | -28.46670 | 37751 ft | 440 kts | 277° |
| 2026-04-29 15:48 | 64.85323 | -28.60781 | 37730 ft | 440 kts | 277° |
| 2026-04-29 15:49 | 64.86525 | -28.74923 | 37722 ft | 440 kts | 277° |
| 2026-04-29 15:49 | 64.87711 | -28.89056 | 37718 ft | 440 kts | 277° |
| 2026-04-29 15:50 | 64.88884 | -29.03197 | 37721 ft | 440 kts | 277° |
| 2026-04-29 15:50 | 64.90045 | -29.17373 | 37719 ft | 440 kts | 277° |
| 2026-04-29 15:51 | 64.91191 | -29.31548 | 37717 ft | 440 kts | 277° |
| 2026-04-29 15:51 | 64.92317 | -29.45639 | 37707 ft | 440 kts | 276° |
| 2026-04-29 15:52 | 64.93436 | -29.59842 | 37705 ft | 440 kts | 276° |
| 2026-04-29 15:52 | 64.94542 | -29.74053 | 37709 ft | 440 kts | 276° |
| 2026-04-29 15:53 | 64.95635 | -29.88270 | 37694 ft | 440 kts | 276° |
| 2026-04-29 15:53 | 64.96713 | -30.02485 | 37701 ft | 440 kts | 276° |
| 2026-04-29 15:54 | 64.97777 | -30.16718 | 37701 ft | 440 kts | 276° |
| 2026-04-29 15:54 | 64.98826 | -30.30941 | 37687 ft | 440 kts | 276° |
| 2026-04-29 15:55 | 64.99862 | -30.45180 | 37690 ft | 440 kts | 276° |
| 2026-04-29 15:55 | 65.00880 | -30.59357 | 37686 ft | 440 kts | 276° |
| 2026-04-29 15:56 | 65.01890 | -30.73633 | 37694 ft | 440 kts | 276° |
| 2026-04-29 15:56 | 65.02887 | -30.87919 | 37691 ft | 439 kts | 276° |
| 2026-04-29 15:57 | 65.03865 | -31.02150 | 37680 ft | 438 kts | 276° |
| 2026-04-29 15:57 | 65.04825 | -31.16321 | 37675 ft | 438 kts | 276° |
| 2026-04-29 15:58 | 65.05777 | -31.30581 | 37675 ft | 438 kts | 276° |
| 2026-04-29 15:58 | 65.06715 | -31.44851 | 37666 ft | 438 kts | 276° |
| 2026-04-29 15:59 | 65.07640 | -31.59128 | 37663 ft | 438 kts | 276° |
| 2026-04-29 15:59 | 65.08550 | -31.73404 | 37663 ft | 438 kts | 275° |
| 2026-04-29 16:00 | 65.09441 | -31.87589 | 37652 ft | 438 kts | 275° |
| 2026-04-29 16:00 | 65.10325 | -32.01899 | 37653 ft | 437 kts | 275° |
| 2026-04-29 16:01 | 65.11195 | -32.16204 | 37651 ft | 438 kts | 276° |
| 2026-04-29 16:01 | 65.12050 | -32.30516 | 37644 ft | 438 kts | 275° |
| 2026-04-29 16:02 | 65.12893 | -32.44852 | 37639 ft | 438 kts | 275° |
| 2026-04-29 16:02 | 65.13722 | -32.59185 | 37639 ft | 438 kts | 275° |
| 2026-04-29 16:03 | 65.14537 | -32.73535 | 37648 ft | 438 kts | 275° |
| 2026-04-29 16:03 | 65.15338 | -32.87887 | 37631 ft | 438 kts | 275° |
| 2026-04-29 16:04 | 65.16126 | -33.02260 | 37629 ft | 438 kts | 275° |
| 2026-04-29 16:04 | 65.16900 | -33.16627 | 37637 ft | 438 kts | 275° |
| 2026-04-29 16:05 | 65.17533 | -33.28576 | 37634 ft | 438 kts | 275° |
| 2026-04-29 16:05 | 65.18402 | -33.45293 | 37621 ft | 438 kts | 275° |
| 2026-04-29 16:06 | 65.19135 | -33.59713 | 37622 ft | 438 kts | 275° |
| 2026-04-29 16:06 | 65.19739 | -33.71785 | 37620 ft | 438 kts | 275° |
| 2026-04-29 16:07 | 65.20447 | -33.86209 | 37615 ft | 438 kts | 275° |
| 2026-04-29 16:07 | 65.21137 | -34.00550 | 37615 ft | 438 kts | 275° |
| 2026-04-29 16:08 | 65.21818 | -34.14996 | 37609 ft | 438 kts | 274° |
| 2026-04-29 16:08 | 65.22484 | -34.29442 | 37593 ft | 438 kts | 274° |
| 2026-04-29 16:09 | 65.23138 | -34.43904 | 37606 ft | 439 kts | 275° |
| 2026-04-29 16:09 | 65.23784 | -34.58387 | 37622 ft | 439 kts | 275° |
| 2026-04-29 16:10 | 65.24415 | -34.72866 | 37606 ft | 439 kts | 275° |
| 2026-04-29 16:10 | 65.25034 | -34.87350 | 37603 ft | 439 kts | 275° |
| 2026-04-29 16:11 | 65.25637 | -35.01743 | 37603 ft | 439 kts | 274° |
| 2026-04-29 16:11 | 65.26230 | -35.16227 | 37601 ft | 439 kts | 274° |
| 2026-04-29 16:12 | 65.26685 | -35.30757 | 37600 ft | 437 kts | 269° |
| 2026-04-29 16:12 | 65.26786 | -35.45309 | 37592 ft | 438 kts | 271° |
| 2026-04-29 16:13 | 65.26941 | -35.59853 | 37602 ft | 437 kts | 271° |
| 2026-04-29 16:13 | 65.27094 | -35.74376 | 37603 ft | 437 kts | 271° |
| 2026-04-29 16:14 | 65.27234 | -35.88802 | 37630 ft | 438 kts | 271° |
| 2026-04-29 16:14 | 65.27360 | -36.03340 | 37612 ft | 438 kts | 271° |
| 2026-04-29 16:15 | 65.27472 | -36.17899 | 37604 ft | 438 kts | 270° |
| 2026-04-29 16:15 | 65.27570 | -36.32435 | 37607 ft | 438 kts | 270° |
| 2026-04-29 16:16 | 65.27654 | -36.46980 | 37616 ft | 438 kts | 270° |
| 2026-04-29 16:16 | 65.27725 | -36.61542 | 37616 ft | 438 kts | 270° |
| 2026-04-29 16:17 | 65.27781 | -36.76090 | 37610 ft | 438 kts | 270° |
| 2026-04-29 16:17 | 65.27823 | -36.90555 | 37609 ft | 438 kts | 270° |
| 2026-04-29 16:18 | 65.27851 | -37.05096 | 37614 ft | 438 kts | 270° |
| 2026-04-29 16:18 | 65.27865 | -37.19641 | 37614 ft | 438 kts | 270° |
| 2026-04-29 16:19 | 65.27865 | -37.34204 | 37615 ft | 438 kts | 270° |
| 2026-04-29 16:19 | 65.27851 | -37.48765 | 37608 ft | 438 kts | 270° |
| 2026-04-29 16:20 | 65.27823 | -37.63317 | 37618 ft | 437 kts | 269° |
| 2026-04-29 16:20 | 65.27781 | -37.77833 | 37620 ft | 437 kts | 269° |
| 2026-04-29 16:21 | 65.27726 | -37.92359 | 37625 ft | 437 kts | 269° |
| 2026-04-29 16:21 | 65.27656 | -38.06783 | 37625 ft | 437 kts | 269° |
| 2026-04-29 16:22 | 65.27572 | -38.21294 | 37622 ft | 437 kts | 269° |
| 2026-04-29 16:22 | 65.27475 | -38.35829 | 37628 ft | 437 kts | 269° |
| 2026-04-29 16:23 | 65.27363 | -38.50344 | 37603 ft | 437 kts | 269° |
| 2026-04-29 16:23 | 65.27238 | -38.64823 | 37641 ft | 435 kts | 269° |
| 2026-04-29 16:24 | 65.27099 | -38.79251 | 37631 ft | 434 kts | 269° |
| 2026-04-29 16:24 | 65.26947 | -38.93579 | 37631 ft | 434 kts | 269° |
| 2026-04-29 16:25 | 65.26780 | -39.08082 | 37631 ft | 434 kts | 269° |
| 2026-04-29 16:25 | 65.26601 | -39.22408 | 37650 ft | 434 kts | 269° |
| 2026-04-29 16:26 | 65.26408 | -39.36819 | 37647 ft | 434 kts | 268° |
| 2026-04-29 16:26 | 65.26200 | -39.51254 | 37648 ft | 434 kts | 268° |
| 2026-04-29 16:27 | 65.25979 | -39.65659 | 37661 ft | 432 kts | 269° |
| 2026-04-29 16:27 | 65.25745 | -39.79984 | 37694 ft | 432 kts | 268° |
| 2026-04-29 16:28 | 65.25497 | -39.94324 | 37691 ft | 432 kts | 268° |
| 2026-04-29 16:28 | 65.25370 | -40.01407 | 37759 ft | 418 kts | 268° |
| 2026-04-29 16:28 | 65.25242 | -40.08300 | 37696 ft | 416 kts | 268° |
| 2026-04-29 16:29 | 65.24980 | -40.22067 | 37740 ft | 419 kts | 268° |
| 2026-04-29 16:29 | 65.24702 | -40.35873 | 37745 ft | 412 kts | 268° |
| 2026-04-29 16:30 | 65.24415 | -40.49614 | 37782 ft | 417 kts | 268° |
| 2026-04-29 16:30 | 65.24111 | -40.63482 | 37763 ft | 416 kts | 268° |
| 2026-04-29 16:31 | 65.23798 | -40.77169 | 37813 ft | 418 kts | 268° |
| 2026-04-29 16:31 | 65.23471 | -40.90980 | 37865 ft | 413 kts | 268° |
| 2026-04-29 16:32 | 65.23133 | -41.04667 | 37831 ft | 415 kts | 268° |
| 2026-04-29 16:32 | 65.22781 | -41.18454 | 37867 ft | 415 kts | 268° |
| 2026-04-29 16:33 | 65.22232 | -41.39018 | 37973 ft | 418 kts | 267° |
| 2026-04-29 16:33 | 65.21846 | -41.52827 | 37935 ft | 420 kts | 267° |
| 2026-04-29 16:34 | 65.21445 | -41.66781 | 37967 ft | 424 kts | 267° |
| 2026-04-29 16:34 | 65.21028 | -41.80785 | 37973 ft | 422 kts | 267° |
| 2026-04-29 16:35 | 65.20599 | -41.94790 | 38019 ft | 425 kts | 267° |
| 2026-04-29 16:35 | 65.20156 | -42.08786 | 38022 ft | 422 kts | 267° |
| 2026-04-29 16:36 | 65.19701 | -42.22766 | 38037 ft | 425 kts | 267° |
| 2026-04-29 16:36 | 65.19234 | -42.36699 | 38026 ft | 422 kts | 267° |
| 2026-04-29 16:37 | 65.18752 | -42.50702 | 38058 ft | 426 kts | 266° |
| 2026-04-29 16:37 | 65.18337 | -42.62431 | 38047 ft | 422 kts | 266° |
| 2026-04-29 16:38 | 65.17749 | -42.78675 | 38041 ft | 427 kts | 266° |
| 2026-04-29 16:38 | 65.17224 | -42.92771 | 38036 ft | 427 kts | 266° |
| 2026-04-29 16:39 | 65.16691 | -43.06854 | 38058 ft | 427 kts | 266° |
| 2026-04-29 16:39 | 65.16149 | -43.20856 | 38048 ft | 427 kts | 266° |
| 2026-04-29 16:40 | 65.15592 | -43.34928 | 38040 ft | 427 kts | 266° |
| 2026-04-29 16:40 | 65.15024 | -43.48976 | 38045 ft | 427 kts | 266° |
| 2026-04-29 16:41 | 65.14443 | -43.63043 | 38035 ft | 427 kts | 266° |
| 2026-04-29 16:41 | 65.13925 | -43.77099 | 38040 ft | 427 kts | 267° |
| 2026-04-29 16:42 | 65.13520 | -43.91224 | 38022 ft | 428 kts | 267° |
| 2026-04-29 16:42 | 65.13108 | -44.05269 | 38025 ft | 429 kts | 267° |
| 2026-04-29 16:43 | 65.12681 | -44.19387 | 38031 ft | 428 kts | 267° |
| 2026-04-29 16:43 | 65.12241 | -44.33491 | 38034 ft | 428 kts | 266° |
| 2026-04-29 16:44 | 65.11788 | -44.47590 | 38036 ft | 428 kts | 266° |
| 2026-04-29 16:44 | 65.11321 | -44.61704 | 38050 ft | 428 kts | 266° |
| 2026-04-29 16:45 | 65.10840 | -44.75804 | 38022 ft | 428 kts | 266° |
| 2026-04-29 16:45 | 65.10348 | -44.89860 | 38047 ft | 426 kts | 266° |
| 2026-04-29 16:46 | 65.09847 | -45.03802 | 38050 ft | 426 kts | 266° |
| 2026-04-29 16:46 | 65.09330 | -45.17819 | 38068 ft | 426 kts | 266° |
| 2026-04-29 16:47 | 65.08800 | -45.31822 | 38085 ft | 426 kts | 266° |
| 2026-04-29 16:47 | 65.08257 | -45.45812 | 38067 ft | 426 kts | 266° |
| 2026-04-29 16:48 | 65.07700 | -45.59835 | 38076 ft | 426 kts | 265° |
| 2026-04-29 16:48 | 65.07131 | -45.73817 | 38075 ft | 426 kts | 265° |
| 2026-04-29 16:49 | 65.06549 | -45.87790 | 38053 ft | 425 kts | 265° |
| 2026-04-29 16:49 | 65.05960 | -46.01613 | 38073 ft | 423 kts | 265° |
| 2026-04-29 16:50 | 65.05357 | -46.15471 | 38077 ft | 423 kts | 265° |
| 2026-04-29 16:50 | 65.04740 | -46.29336 | 38078 ft | 423 kts | 265° |
| 2026-04-29 16:51 | 65.04113 | -46.43129 | 38077 ft | 423 kts | 265° |
| 2026-04-29 16:51 | 65.03471 | -46.56970 | 38078 ft | 423 kts | 265° |
| 2026-04-29 16:52 | 65.02817 | -46.70800 | 38081 ft | 423 kts | 265° |
| 2026-04-29 16:52 | 65.02148 | -46.84654 | 38079 ft | 423 kts | 265° |
| 2026-04-29 16:53 | 65.01468 | -46.98480 | 38074 ft | 423 kts | 265° |
| 2026-04-29 16:53 | 65.00766 | -47.12206 | 38071 ft | 423 kts | 262° |
| 2026-04-29 16:54 | 64.99954 | -47.18886 | 38062 ft | 426 kts | 246° |
| 2026-04-29 16:54 | 64.98429 | -47.24942 | 38087 ft | 429 kts | 243° |
| 2026-04-29 16:54 | 64.95662 | -47.37428 | 38101 ft | 430 kts | 246° |
| 2026-04-29 16:55 | 64.92974 | -47.50003 | 38064 ft | 428 kts | 246° |
| 2026-04-29 16:55 | 64.90311 | -47.62485 | 38064 ft | 429 kts | 246° |
| 2026-04-29 16:56 | 64.87623 | -47.75030 | 38034 ft | 428 kts | 246° |
| 2026-04-29 16:56 | 64.85385 | -47.85411 | 38056 ft | 426 kts | 246° |
| 2026-04-29 16:57 | 64.82701 | -47.97794 | 37749 ft | 422 kts | 246° |
| 2026-04-29 16:57 | 64.81356 | -48.03982 | 36785 ft | 428 kts | 246° |
| 2026-04-29 16:57 | 64.79552 | -48.12251 | 35877 ft | 426 kts | 246° |
| 2026-04-29 16:58 | 64.78637 | -48.16425 | 35485 ft | 424 kts | 247° |
| 2026-04-29 16:58 | 64.77283 | -48.22603 | 34620 ft | 426 kts | 247° |
| 2026-04-29 16:58 | 64.75954 | -48.28636 | 33957 ft | 418 kts | 247° |
| 2026-04-29 16:58 | 64.74626 | -48.34652 | 33043 ft | 412 kts | 247° |
| 2026-04-29 16:59 | 64.73313 | -48.40583 | 32303 ft | 409 kts | 247° |
| 2026-04-29 16:59 | 64.72004 | -48.46470 | 31722 ft | 404 kts | 247° |
| 2026-04-29 16:59 | 64.70718 | -48.52255 | 31251 ft | 397 kts | 248° |
| 2026-04-29 16:59 | 64.69448 | -48.57943 | 30701 ft | 392 kts | 248° |
| 2026-04-29 17:00 | 64.68190 | -48.63563 | 30186 ft | 388 kts | 248° |
| 2026-04-29 17:00 | 64.66958 | -48.69053 | 29547 ft | 384 kts | 248° |
| 2026-04-29 17:00 | 64.65721 | -48.74544 | 28988 ft | 379 kts | 247° |
| 2026-04-29 17:00 | 64.64502 | -48.79946 | 28457 ft | 374 kts | 247° |
| 2026-04-29 17:01 | 64.63293 | -48.85289 | 27970 ft | 369 kts | 247° |
| 2026-04-29 17:01 | 64.62100 | -48.90547 | 27464 ft | 365 kts | 246° |
| 2026-04-29 17:01 | 64.60914 | -48.95765 | 26958 ft | 362 kts | 246° |
| 2026-04-29 17:01 | 64.59737 | -49.00931 | 26461 ft | 359 kts | 246° |
| 2026-04-29 17:02 | 64.58567 | -49.06057 | 25958 ft | 357 kts | 245° |
| 2026-04-29 17:02 | 64.57417 | -49.11079 | 25486 ft | 355 kts | 245° |
| 2026-04-29 17:02 | 64.56258 | -49.16130 | 25006 ft | 354 kts | 245° |
| 2026-04-29 17:02 | 64.55100 | -49.21164 | 24478 ft | 351 kts | 246° |
| 2026-04-29 17:03 | 64.53953 | -49.26146 | 24033 ft | 348 kts | 246° |
| 2026-04-29 17:03 | 64.52810 | -49.31098 | 23566 ft | 346 kts | 246° |
| 2026-04-29 17:03 | 64.51674 | -49.36003 | 23029 ft | 343 kts | 246° |
| 2026-04-29 17:03 | 64.50545 | -49.40867 | 22567 ft | 340 kts | 246° |
| 2026-04-29 17:04 | 64.49429 | -49.45666 | 22144 ft | 336 kts | 245° |
| 2026-04-29 17:04 | 64.48322 | -49.50415 | 21695 ft | 333 kts | 245° |
| 2026-04-29 17:04 | 64.47225 | -49.55108 | 21276 ft | 329 kts | 245° |
| 2026-04-29 17:04 | 64.46135 | -49.59762 | 20875 ft | 327 kts | 245° |
| 2026-04-29 17:05 | 64.45053 | -49.64374 | 20472 ft | 325 kts | 245° |
| 2026-04-29 17:05 | 64.43976 | -49.68953 | 20090 ft | 322 kts | 245° |
| 2026-04-29 17:05 | 64.42905 | -49.73499 | 19679 ft | 320 kts | 244° |
| 2026-04-29 17:05 | 64.41841 | -49.78007 | 19298 ft | 321 kts | 244° |
| 2026-04-29 17:06 | 64.40758 | -49.82585 | 18906 ft | 326 kts | 244° |
| 2026-04-29 17:06 | 64.39674 | -49.87160 | 18530 ft | 329 kts | 244° |
| 2026-04-29 17:06 | 64.38557 | -49.91866 | 18088 ft | 329 kts | 244° |
| 2026-04-29 17:06 | 64.37473 | -49.96421 | 17687 ft | 325 kts | 244° |
| 2026-04-29 17:07 | 64.36390 | -50.00959 | 17307 ft | 321 kts | 244° |
| 2026-04-29 17:07 | 64.35318 | -50.05442 | 16937 ft | 317 kts | 244° |
| 2026-04-29 17:07 | 64.34256 | -50.09873 | 16574 ft | 313 kts | 244° |
| 2026-04-29 17:07 | 64.33205 | -50.14250 | 16214 ft | 310 kts | 244° |
| 2026-04-29 17:08 | 64.32165 | -50.18574 | 15850 ft | 307 kts | 243° |
| 2026-04-29 17:08 | 64.31135 | -50.22846 | 15489 ft | 304 kts | 243° |
| 2026-04-29 17:08 | 64.30098 | -50.27141 | 15149 ft | 310 kts | 243° |
| 2026-04-29 17:08 | 64.29040 | -50.31515 | 14780 ft | 314 kts | 243° |
| 2026-04-29 17:09 | 64.27986 | -50.35865 | 14425 ft | 315 kts | 243° |
| 2026-04-29 17:09 | 64.26917 | -50.40266 | 14069 ft | 315 kts | 243° |
| 2026-04-29 17:09 | 64.25847 | -50.44663 | 13681 ft | 315 kts | 242° |
| 2026-04-29 17:09 | 64.24777 | -50.49050 | 13272 ft | 313 kts | 242° |
| 2026-04-29 17:10 | 64.23714 | -50.53398 | 12901 ft | 310 kts | 242° |
| 2026-04-29 17:10 | 64.22663 | -50.57692 | 12541 ft | 307 kts | 242° |
| 2026-04-29 17:10 | 64.21616 | -50.61957 | 12184 ft | 303 kts | 242° |
| 2026-04-29 17:10 | 64.20598 | -50.66099 | 11847 ft | 299 kts | 242° |
| 2026-04-29 17:11 | 64.19577 | -50.70247 | 11503 ft | 296 kts | 242° |
| 2026-04-29 17:11 | 64.18557 | -50.74381 | 11163 ft | 300 kts | 241° |
| 2026-04-29 17:11 | 64.17519 | -50.78578 | 10843 ft | 303 kts | 241° |
| 2026-04-29 17:11 | 64.16493 | -50.82723 | 10678 ft | 295 kts | 241° |
| 2026-04-29 17:12 | 64.15500 | -50.86724 | 10553 ft | 282 kts | 241° |
| 2026-04-29 17:12 | 64.14550 | -50.90544 | 10423 ft | 270 kts | 241° |
| 2026-04-29 17:12 | 64.13633 | -50.94226 | 10296 ft | 261 kts | 241° |
| 2026-04-29 17:12 | 64.13042 | -50.96595 | 10208 ft | 256 kts | 241° |
| 2026-04-29 17:13 | 64.11895 | -51.01188 | 10020 ft | 247 kts | 241° |
| 2026-04-29 17:13 | 64.11049 | -51.04567 | 9747 ft | 242 kts | 240° |
| 2026-04-29 17:13 | 64.10219 | -51.07879 | 9450 ft | 236 kts | 240° |
| 2026-04-29 17:13 | 64.09413 | -51.11092 | 9174 ft | 231 kts | 240° |
| 2026-04-29 17:14 | 64.08614 | -51.14274 | 8932 ft | 229 kts | 240° |
| 2026-04-29 17:14 | 64.07819 | -51.17431 | 8688 ft | 229 kts | 240° |
| 2026-04-29 17:14 | 64.07027 | -51.20578 | 8431 ft | 228 kts | 240° |
| 2026-04-29 17:14 | 64.06236 | -51.23712 | 8198 ft | 227 kts | 240° |
| 2026-04-29 17:15 | 64.05446 | -51.26835 | 7950 ft | 227 kts | 240° |
| 2026-04-29 17:15 | 64.04668 | -51.29911 | 7691 ft | 226 kts | 239° |
| 2026-04-29 17:15 | 64.03881 | -51.33016 | 7456 ft | 225 kts | 239° |
| 2026-04-29 17:15 | 64.03096 | -51.36110 | 7208 ft | 225 kts | 239° |
| 2026-04-29 17:16 | 64.02309 | -51.39205 | 6960 ft | 225 kts | 239° |
| 2026-04-29 17:16 | 64.01524 | -51.42288 | 6725 ft | 224 kts | 239° |
| 2026-04-29 17:16 | 64.00739 | -51.45368 | 6484 ft | 224 kts | 238° |
| 2026-04-29 17:16 | 63.99955 | -51.48442 | 6233 ft | 223 kts | 238° |
| 2026-04-29 17:17 | 63.99186 | -51.51452 | 6103 ft | 221 kts | 238° |
| 2026-04-29 17:17 | 63.98403 | -51.54514 | 5988 ft | 220 kts | 238° |
| 2026-04-29 17:17 | 63.97644 | -51.57494 | 5911 ft | 219 kts | 240° |
| 2026-04-29 17:17 | 63.97274 | -51.60850 | 5694 ft | 223 kts | 271° |
| 2026-04-29 17:18 | 63.97607 | -51.64305 | 5447 ft | 225 kts | 285° |
| 2026-04-29 17:18 | 63.98060 | -51.67740 | 5190 ft | 226 kts | 285° |
| 2026-04-29 17:18 | 63.98515 | -51.71130 | 4953 ft | 222 kts | 285° |
| 2026-04-29 17:18 | 63.98971 | -51.74483 | 4673 ft | 220 kts | 285° |
| 2026-04-29 17:19 | 63.99524 | -51.77691 | 4342 ft | 218 kts | 304° |
| 2026-04-29 17:19 | 64.00692 | -51.79812 | 3981 ft | 217 kts | 339° |
| 2026-04-29 17:19 | 64.02153 | -51.80219 | 3664 ft | 211 kts | 11° |
| 2026-04-29 17:19 | 64.03524 | -51.79285 | 3424 ft | 202 kts | 22° |
| 2026-04-29 17:20 | 64.04819 | -51.78241 | 3182 ft | 193 kts | 21° |
| 2026-04-29 17:20 | 64.06079 | -51.77300 | 2899 ft | 188 kts | 20° |
| 2026-04-29 17:20 | 64.07313 | -51.76416 | 2619 ft | 183 kts | 19° |
| 2026-04-29 17:20 | 64.08503 | -51.75563 | 2433 ft | 174 kts | 19° |
| 2026-04-29 17:21 | 64.09615 | -51.74763 | 2248 ft | 161 kts | 19° |
| 2026-04-29 17:21 | 64.10663 | -51.74010 | 2019 ft | 155 kts | 19° |
| 2026-04-29 17:21 | 64.11687 | -51.73273 | 1796 ft | 153 kts | 18° |
| 2026-04-29 17:21 | 64.12677 | -51.72560 | 1593 ft | 145 kts | 18° |
| 2026-04-29 17:22 | 64.13626 | -51.71876 | 1353 ft | 141 kts | 18° |
| 2026-04-29 17:22 | 64.14562 | -51.71212 | 1118 ft | 140 kts | 17° |
| 2026-04-29 17:22 | 64.15496 | -51.70592 | 897 ft | 139 kts | 18° |
| 2026-04-29 17:22 | 64.16409 | -51.69919 | 681 ft | 136 kts | 19° |
| 2026-04-29 17:23 | 64.17308 | -51.69245 | 503 ft | 134 kts | 19° |
| 2026-04-29 17:23 | 64.18189 | -51.68600 | 314 ft | 131 kts | 20° |
| 2026-04-29 17:23 | 64.18936 | -51.68038 | 291 ft | 86 kts | 18° |
| 2026-04-29 17:23 | 64.19401 | -51.67692 | 291 ft | 45 kts | 18° |
| 2026-04-29 17:24 | 64.19717 | -51.67456 | 296 ft | 41 kts | 18° |
| 2026-04-29 17:24 | 64.19899 | -51.67327 | 292 ft | 17 kts | 6° |
| 2026-04-29 17:24 | 64.20005 | -51.67318 | 295 ft | 11 kts | 39° |
| 2026-04-29 17:24 | 64.20001 | -51.67248 | 297 ft | 2 kts | 162° |
| 2026-04-29 17:25 | 64.19948 | -51.67281 | 296 ft | 17 kts | 199° |
| 2026-04-29 17:25 | 64.19798 | -51.67394 | 293 ft | 25 kts | 198° |
| 2026-04-29 17:25 | 64.19623 | -51.67523 | 295 ft | 28 kts | 198° |
| 2026-04-29 17:25 | 64.19434 | -51.67664 | 292 ft | 27 kts | 198° |
| 2026-04-29 17:26 | 64.19253 | -51.67803 | 289 ft | 29 kts | 198° |
| 2026-04-29 17:26 | 64.19064 | -51.67943 | 293 ft | 29 kts | 198° |
| 2026-04-29 17:26 | 64.18867 | -51.68091 | 293 ft | 29 kts | 198° |
| 2026-04-29 17:26 | 64.18718 | -51.68202 | 294 ft | 18 kts | 196° |
| 2026-04-29 17:27 | 64.18647 | -51.68118 | 295 ft | 12 kts | 111° |
| 2026-04-29 17:27 | 64.18613 | -51.67962 | 292 ft | 7 kts | 134° |
| 2026-04-29 17:27 | 64.18605 | -51.67946 | 293 ft | 0 kts | 141° |
| 2026-04-29 17:28 | 64.18598 | -51.67935 | 293 ft | 3 kts | 141° |
| 2026-04-29 17:28 | 64.18561 | -51.67867 | 291 ft | 9 kts | 142° |
| 2026-04-29 17:28 | 64.18542 | -51.67831 | 291 ft | 0 kts | 141° |